Time;durP1;ratioP1;P1;durP2;ratioP2;P2;SDS_P1;SDS_P2;PMS_P1;PMS_P2;Temp;Humidity;BMP_temperature;BMP_pressure;BME280_temperature;BME280_humidity;BME280_pressure;Samples;Min_cycle;Max_cycle;Signal;HPM_P1;HPM_P2
2022/10/21 00:01:07;;;;;;;29.80;19.30;;;;;;;11.73;100.00;100686.72;5092843;28;20048;-55
2022/10/21 00:03:36;;;;;;;31.60;19.73;;;;;;;11.76;100.00;100689.09;5089914;28;20488;-54
2022/10/21 00:06:05;;;;;;;30.67;19.67;;;;;;;11.78;100.00;100685.41;5090563;28;20098;-56
2022/10/21 00:08:34;;;;;;;27.73;18.42;;;;;;;11.82;100.00;100686.88;5093418;28;20043;-55
2022/10/21 00:11:05;;;;;;;26.90;18.95;;;;;;;11.89;100.00;100683.78;5093061;28;20044;-56
2022/10/21 00:13:35;;;;;;;29.58;18.10;;;;;;;11.90;100.00;100683.69;5092840;28;20502;-55
2022/10/21 00:16:06;;;;;;;26.92;17.88;;;;;;;11.96;100.00;100691.16;5089465;28;20460;-54
2022/10/21 00:18:36;;;;;;;25.50;18.77;;;;;;;11.98;100.00;100694.53;5091134;28;20462;-54
2022/10/21 00:21:09;;;;;;;28.35;18.33;;;;;;;12.03;100.00;100696.00;5092890;28;20518;-53
2022/10/21 00:23:37;;;;;;;;;;;;;;;12.06;100.00;100685.22;5092998;28;20123;-55
2022/10/21 00:26:07;;;;;;;26.52;17.90;;;;;;;12.08;100.00;100689.44;5092589;28;20309;-55
2022/10/21 00:28:35;;;;;;;32.05;18.15;;;;;;;12.16;100.00;100686.19;5092021;28;20498;-55
2022/10/21 00:31:06;;;;;;;28.17;18.92;;;;;;;12.21;100.00;100693.78;5089413;28;20051;-56
2022/10/21 00:33:35;;;;;;;28.55;19.30;;;;;;;12.24;100.00;100683.00;5089311;28;20060;-55
2022/10/21 00:36:06;;;;;;;28.67;20.00;;;;;;;12.24;100.00;100686.47;5091368;28;20036;-55
2022/10/21 00:38:35;;;;;;;30.63;19.55;;;;;;;12.33;100.00;100687.59;5092500;28;20048;-55
2022/10/21 00:41:03;;;;;;;29.85;19.55;;;;;;;12.34;100.00;100674.28;5089501;28;20040;-56
2022/10/21 00:43:33;;;;;;;30.60;19.25;;;;;;;12.34;100.00;100676.09;5090385;28;20044;-55
2022/10/21 00:46:06;;;;;;;27.88;18.88;;;;;;;12.39;100.00;100681.84;5090745;28;20048;-55
2022/10/21 00:48:39;;;;;;;30.38;18.98;;;;;;;12.36;100.00;100675.97;5089279;28;20056;-54
2022/10/21 00:51:11;;;;;;;32.58;19.17;;;;;;;12.37;100.00;100683.78;5088761;28;20514;-55
2022/10/21 00:53:42;;;;;;;30.38;19.02;;;;;;;12.37;100.00;100682.94;5087555;28;20048;-56
2022/10/21 00:56:14;;;;;;;25.48;17.73;;;;;;;12.37;100.00;100677.66;5090027;28;20043;-55
2022/10/21 00:58:47;;;;;;;28.23;18.52;;;;;;;12.37;100.00;100672.38;5092379;28;20058;-55
2022/10/21 01:01:15;;;;;;;24.70;17.83;;;;;;;12.34;100.00;100671.66;5092364;28;20052;-54
2022/10/21 01:03:49;;;;;;;29.75;17.85;;;;;;;12.35;100.00;100669.84;5092178;28;20082;-56
2022/10/21 01:06:20;;;;;;;24.35;17.65;;;;;;;12.33;100.00;100674.41;5089229;28;20040;-55
2022/10/21 01:08:48;;;;;;;27.00;17.50;;;;;;;12.34;100.00;100674.28;5088142;28;20040;-55
2022/10/21 01:11:19;;;;;;;23.58;17.23;;;;;;;12.30;100.00;100675.47;5089198;28;20033;-55
2022/10/21 01:14:03;;;;;;;24.65;17.15;;;;;;;12.31;100.00;100671.88;5090721;28;20052;-55
2022/10/21 01:16:39;;;;;;;24.58;16.55;;;;;;;12.29;100.00;100667.69;5091781;28;20508;-56
2022/10/21 01:19:34;;;;;;;21.55;14.90;;;;;;;12.23;100.00;100670.75;5090222;28;20056;-55
2022/10/21 01:22:12;;;;;;;23.58;15.82;;;;;;;12.18;100.00;100652.66;5088367;28;20693;-55
2022/10/21 01:24:53;;;;;;;28.25;18.05;;;;;;;12.18;100.00;100657.94;5087393;28;20089;-54
2022/10/21 01:27:30;;;;;;;29.02;18.35;;;;;;;12.18;100.00;100663.22;5088918;28;20103;-54
2022/10/21 01:30:37;;;;;;;23.13;16.95;;;;;;;12.16;100.00;100649.28;5094265;28;20047;-55
2022/10/21 01:33:35;;;;;;;23.88;15.60;;;;;;;12.07;100.00;100650.00;5094897;28;20051;-55
2022/10/21 01:36:15;;;;;;;23.02;16.48;;;;;;;12.07;100.00;100650.00;5092101;28;20465;-55
2022/10/21 01:38:53;;;;;;;26.05;16.83;;;;;;;12.13;100.00;100641.63;5091865;28;20059;-56
2022/10/21 01:41:28;;;;;;;23.90;16.60;;;;;;;12.13;100.00;100644.25;5092640;28;20093;-55
2022/10/21 01:44:06;;;;;;;25.65;17.40;;;;;;;12.07;100.00;100634.19;5093180;28;20048;-57
2022/10/21 01:46:42;;;;;;;25.63;17.08;;;;;;;12.08;100.00;100631.44;5094628;28;20060;-55
2022/10/21 01:49:15;;;;;;;25.35;16.77;;;;;;;12.07;100.00;100629.75;5095897;28;20690;-57
2022/10/21 01:51:44;;;;;;;29.52;18.05;;;;;;;12.07;100.00;100621.00;5092904;28;20071;-55
2022/10/21 01:54:19;;;;;;;26.00;18.13;;;;;;;12.02;100.00;100620.50;5090563;28;20040;-56
2022/10/21 01:56:48;;;;;;;26.08;17.38;;;;;;;11.99;100.00;100614.50;5092655;28;20055;-55
2022/10/21 01:59:20;;;;;;;29.65;17.63;;;;;;;12.02;100.00;100621.34;5094601;28;20048;-55
2022/10/21 02:01:51;;;;;;;27.02;18.30;;;;;;;12.11;100.00;100618.00;5092547;28;20051;-55
2022/10/21 02:04:21;;;;;;;29.55;18.70;;;;;;;12.08;100.00;100604.22;5092174;28;20044;-54
2022/10/21 02:06:49;;;;;;;26.38;16.88;;;;;;;12.04;100.00;100594.84;5092236;28;20036;-56
2022/10/21 02:09:17;;;;;;;28.88;17.48;;;;;;;12.03;100.00;100590.56;5090786;28;20490;-56
2022/10/21 02:11:50;;;;;;;26.58;17.85;;;;;;;12.02;100.00;100587.06;5093715;28;20048;-56
2022/10/21 02:14:23;;;;;;;29.60;18.77;;;;;;;12.00;100.00;100579.28;5095176;28;20511;-55
2022/10/21 02:16:54;;;;;;;35.40;20.20;;;;;;;12.07;100.00;100577.03;5094791;28;20105;-55
2022/10/21 02:19:22;;;;;;;31.98;21.20;;;;;;;12.13;100.00;100573.94;5093695;28;20044;-55
2022/10/21 02:21:54;;;;;;;34.28;21.52;;;;;;;12.09;100.00;100569.88;5090130;28;20055;-54
2022/10/21 02:24:28;;;;;;;32.50;21.38;;;;;;;12.12;100.00;100566.97;5093466;28;20052;-55
2022/10/21 02:26:56;;;;;;;32.08;21.42;;;;;;;12.07;100.00;100561.22;5094606;28;20433;-56
2022/10/21 02:29:28;;;;;;;32.08;20.73;;;;;;;12.04;100.00;100561.47;5091787;28;20056;-54
2022/10/21 02:32:13;;;;;;;33.08;20.73;;;;;;;12.02;100.00;100559.88;5092247;28;20437;-54
2022/10/21 02:34:58;;;;;;;26.73;18.67;;;;;;;11.97;100.00;100562.84;5094338;28;20429;-54
2022/10/21 02:37:32;;;;;;;30.30;19.65;;;;;;;11.91;100.00;100566.75;5094854;28;20552;-56
2022/10/21 02:40:08;;;;;;;27.05;17.92;;;;;;;11.87;100.00;100565.31;5094618;28;20048;-54
2022/10/21 02:42:43;;;;;;;25.30;17.20;;;;;;;11.75;100.00;100566.22;5093101;28;20051;-55
2022/10/21 02:45:12;;;;;;;20.85;14.82;;;;;;;11.73;100.00;100562.88;5091011;28;20063;-55
2022/10/21 02:47:43;;;;;;;22.35;16.05;;;;;;;11.67;100.00;100564.19;5091675;28;20414;-54
2022/10/21 02:50:11;;;;;;;26.58;16.10;;;;;;;11.62;100.00;100569.78;5090830;28;20052;-55
2022/10/21 02:52:40;;;;;;;24.83;16.85;;;;;;;11.59;100.00;100571.78;5091394;28;20052;-54
2022/10/21 02:55:08;;;;;;;28.02;17.88;;;;;;;11.49;100.00;100556.69;5090925;28;20056;-55
2022/10/21 02:57:39;;;;;;;26.75;17.80;;;;;;;11.54;100.00;100555.50;5094394;28;20040;-54
2022/10/21 03:00:09;;;;;;;28.70;19.02;;;;;;;11.48;100.00;100554.19;5094262;28;20418;-54
2022/10/21 03:02:37;;;;;;;26.65;17.23;;;;;;;11.42;100.00;100551.97;5092827;28;20048;-54
2022/10/21 03:05:08;;;;;;;31.15;18.42;;;;;;;11.43;100.00;100553.66;5094154;28;20048;-55
2022/10/21 03:07:36;;;;;;;29.30;16.80;;;;;;;11.39;100.00;100549.56;5093854;28;20055;-55
2022/10/21 03:10:05;;;;;;;22.02;14.80;;;;;;;11.31;100.00;100555.38;5091958;28;20044;-55
2022/10/21 03:12:36;;;;;;;25.33;16.15;;;;;;;11.25;100.00;100554.06;5091449;28;20115;-55
2022/10/21 03:15:04;;;;;;;19.42;14.27;;;;;;;11.26;100.00;100549.63;5093880;28;20044;-53
2022/10/21 03:17:32;;;;;;;21.65;15.40;;;;;;;11.20;100.00;100561.44;5094014;28;20558;-55
2022/10/21 03:20:01;;;;;;;20.73;14.90;;;;;;;11.14;100.00;100548.72;5091307;28;20394;-55
2022/10/21 03:22:30;;;;;;;20.60;14.18;;;;;;;11.11;100.00;100562.94;5090584;28;20554;-53
2022/10/21 03:24:58;;;;;;;21.40;15.10;;;;;;;11.06;100.00;100554.53;5091692;28;20078;-53
2022/10/21 03:27:27;;;;;;;19.05;13.65;;;;;;;11.04;100.00;100553.78;5093888;28;20043;-54
2022/10/21 03:29:55;;;;;;;20.10;13.60;;;;;;;11.02;100.00;100557.50;5093934;28;20048;-55
2022/10/21 03:32:23;;;;;;;23.38;15.07;;;;;;;10.99;100.00;100556.75;5092538;28;20036;-55
2022/10/21 03:34:51;;;;;;;20.90;15.00;;;;;;;10.95;100.00;100562.38;5090577;28;20059;-55
2022/10/21 03:37:19;;;;;;;19.85;14.32;;;;;;;10.89;100.00;100560.97;5090291;28;20044;-54
2022/10/21 03:39:48;;;;;;;21.08;15.15;;;;;;;10.89;100.00;100554.91;5089547;28;20510;-54
2022/10/21 03:42:16;;;;;;;18.83;13.65;;;;;;;10.83;100.00;100559.63;5090410;28;20068;-55
2022/10/21 03:44:45;;;;;;;20.92;14.52;;;;;;;10.86;100.00;100558.59;5090470;28;20146;-56
2022/10/21 03:47:13;;;;;;;19.80;13.65;;;;;;;10.82;100.00;100559.75;5089908;28;20384;-55
2022/10/21 03:49:44;;;;;;;20.52;13.57;;;;;;;10.79;100.00;100557.34;5090289;28;20051;-54
2022/10/21 03:52:13;;;;;;;18.70;13.90;;;;;;;10.77;100.00;100548.69;5089030;28;20526;-55
2022/10/21 03:54:44;;;;;;;18.53;13.17;;;;;;;10.75;100.00;100545.34;5089278;28;20123;-47
2022/10/21 03:57:13;;;;;;;17.52;12.60;;;;;;;10.74;100.00;100543.66;5090545;28;20398;-48
2022/10/21 03:59:42;;;;;;;20.50;13.90;;;;;;;10.67;100.00;100531.91;5092622;28;20055;-51
2022/10/21 04:02:10;;;;;;;18.33;13.07;;;;;;;10.67;100.00;100532.72;5090309;28;20047;-49
2022/10/21 04:04:38;;;;;;;21.75;13.13;;;;;;;10.67;100.00;100531.91;5090027;28;20044;-49
2022/10/21 04:07:06;;;;;;;19.08;12.48;;;;;;;10.63;100.00;100529.50;5090163;28;20471;-51
2022/10/21 04:09:34;;;;;;;17.92;12.82;;;;;;;10.61;100.00;100527.94;5093600;28;20532;-47
2022/10/21 04:12:03;;;;;;;20.15;12.98;;;;;;;10.55;100.00;100531.84;5093230;28;20054;-51
2022/10/21 04:14:32;;;;;;;17.52;12.45;;;;;;;10.55;100.00;100539.72;5093112;28;20609;-55
2022/10/21 04:17:00;;;;;;;17.27;12.02;;;;;;;10.53;100.00;100538.97;5092989;28;20519;-55
2022/10/21 04:19:34;;;;;;;17.58;12.00;;;;;;;10.48;100.00;100541.94;5092876;28;20048;-55
2022/10/21 04:22:03;;;;;;;20.83;12.27;;;;;;;10.49;100.00;100534.88;5093035;28;20052;-54
2022/10/21 04:24:31;;;;;;;18.10;12.18;;;;;;;10.45;100.00;100549.19;5091721;28;20075;-53
2022/10/21 04:26:59;;;;;;;19.60;12.15;;;;;;;10.41;100.00;100543.28;5089499;28;20052;-54
2022/10/21 04:29:27;;;;;;;17.48;12.13;;;;;;;10.37;100.00;100533.94;5091526;28;20052;-55
2022/10/21 04:31:56;;;;;;;21.20;14.32;;;;;;;10.29;100.00;100534.44;5092418;28;20122;-54
2022/10/21 04:34:24;;;;;;;16.30;12.02;;;;;;;10.26;100.00;100526.75;5092255;28;20048;-53
2022/10/21 04:36:52;;;;;;;16.75;11.60;;;;;;;10.21;100.00;100534.13;5089218;28;20048;-53
2022/10/21 04:39:20;;;;;;;19.20;12.23;;;;;;;10.15;100.00;100537.16;5087251;28;20043;-54
2022/10/21 04:41:51;;;;;;;17.48;11.73;;;;;;;10.15;100.00;100548.50;5089214;28;20052;-54
2022/10/21 04:44:19;;;;;;;18.63;12.65;;;;;;;10.12;100.00;100542.63;5090455;28;20124;-55
2022/10/21 04:46:47;;;;;;;19.13;12.75;;;;;;;10.11;100.00;100548.81;5092207;28;20134;-54
2022/10/21 04:49:17;;;;;;;19.65;12.02;;;;;;;10.07;100.00;100545.56;5092116;28;20047;-55
2022/10/21 04:51:45;;;;;;;19.10;12.45;;;;;;;10.06;100.00;100556.19;5090911;28;20502;-55
2022/10/21 04:54:13;;;;;;;19.30;12.57;;;;;;;10.06;100.00;100545.66;5087279;28;20135;-54
2022/10/21 04:56:42;;;;;;;17.00;11.95;;;;;;;10.03;100.00;100543.25;5091240;28;20028;-56
2022/10/21 04:59:10;;;;;;;16.23;11.75;;;;;;;10.03;100.00;100541.47;5092345;28;20120;-55
2022/10/21 05:01:38;;;;;;;17.17;11.05;;;;;;;10.01;100.00;100540.72;5092760;28;20483;-55
2022/10/21 05:04:06;;;;;;;18.27;11.65;;;;;;;9.94;100.00;100535.06;5095026;28;20081;-54
2022/10/21 05:06:35;;;;;;;17.30;11.25;;;;;;;9.93;100.00;100536.00;5094898;28;20042;-55
2022/10/21 05:09:04;;;;;;;17.60;11.63;;;;;;;9.92;100.00;100536.94;5091946;28;20109;-55
2022/10/21 05:11:32;;;;;;;20.02;11.15;;;;;;;9.86;100.00;100528.63;5093156;28;20048;-54
2022/10/21 05:14:00;;;;;;;17.73;12.48;;;;;;;9.82;100.00;100536.72;5095715;28;20048;-53
2022/10/21 05:16:28;;;;;;;17.35;11.77;;;;;;;9.80;100.00;100543.00;5093219;28;20040;-48
2022/10/21 05:18:56;;;;;;;18.50;12.07;;;;;;;9.78;100.00;100543.09;5095078;28;20436;-49
2022/10/21 05:21:24;;;;;;;17.52;11.85;;;;;;;9.76;100.00;100541.53;5096149;28;20153;-49
2022/10/21 05:23:54;;;;;;;19.10;11.48;;;;;;;9.74;100.00;100535.56;5096124;28;20399;-50
2022/10/21 05:26:23;;;;;;;18.05;11.65;;;;;;;9.75;100.00;100547.75;5095760;28;20047;-48
2022/10/21 05:28:51;;;;;;;19.20;12.25;;;;;;;9.73;100.00;100539.09;5092688;28;20139;-51
2022/10/21 05:31:21;;;;;;;16.42;11.50;;;;;;;9.66;100.00;100525.53;5093139;28;20052;-51
2022/10/21 05:33:49;;;;;;;18.10;11.50;;;;;;;9.66;100.00;100530.78;5092314;28;20113;-50
2022/10/21 05:36:17;;;;;;;21.13;12.68;;;;;;;9.64;100.00;100532.69;5094834;28;20047;-49
2022/10/21 05:38:50;;;;;;;17.38;11.45;;;;;;;9.63;100.00;100536.25;5095431;28;20040;-48
2022/10/21 05:41:19;;;;;;;16.95;11.70;;;;;;;9.61;100.00;100536.38;5096141;28;20138;-49
2022/10/21 05:43:48;;;;;;;20.45;11.95;;;;;;;9.57;100.00;100532.25;5095895;28;20402;-50
2022/10/21 05:46:16;;;;;;;21.08;11.98;;;;;;;9.57;100.00;100536.66;5095692;28;20517;-51
2022/10/21 05:48:44;;;;;;;24.58;12.25;;;;;;;9.61;100.00;100540.75;5095662;28;20109;-51
2022/10/21 05:51:14;;;;;;;17.60;11.70;;;;;;;9.59;100.00;100538.22;5095347;28;20376;-48
2022/10/21 05:53:42;;;;;;;19.20;12.68;;;;;;;9.58;100.00;100535.72;5094030;28;20094;-52
2022/10/21 05:56:12;;;;;;;17.05;11.70;;;;;;;9.55;100.00;100543.78;5095436;28;20044;-51
2022/10/21 05:58:42;;;;;;;18.10;11.57;;;;;;;9.48;100.00;100533.69;5093681;28;20517;-48
2022/10/21 06:01:12;;;;;;;16.08;11.25;;;;;;;9.54;100.00;100536.84;5091713;28;20048;-49
2022/10/21 06:03:40;;;;;;;15.45;10.77;;;;;;;9.52;100.00;100529.09;5095036;28;20090;-50
2022/10/21 06:06:09;;;;;;;16.67;11.38;;;;;;;9.51;100.00;100523.94;5095436;28;20036;-48
2022/10/21 06:08:38;;;;;;;17.00;10.27;;;;;;;9.50;100.00;100523.09;5095574;28;20387;-51
2022/10/21 06:11:09;;;;;;;15.07;10.27;;;;;;;9.45;100.00;100523.41;5095358;28;20087;-49
2022/10/21 06:13:37;;;;;;;15.45;10.02;;;;;;;9.47;100.00;100525.91;5095057;28;20047;-53
2022/10/21 06:16:09;;;;;;;13.65;9.82;;;;;;;9.47;100.00;100525.91;5094973;28;20044;-48
2022/10/21 06:18:37;;;;;;;13.95;10.20;;;;;;;9.43;100.00;100527.88;5095013;28;20090;-49
2022/10/21 06:21:07;;;;;;;13.90;9.68;;;;;;;9.47;100.00;100523.28;5094942;28;20044;-47
2022/10/21 06:23:35;;;;;;;17.20;10.07;;;;;;;9.47;100.00;100523.28;5095264;28;20044;-49
2022/10/21 06:26:05;;;;;;;19.42;12.77;;;;;;;9.47;100.00;100525.91;5095164;28;20055;-51
2022/10/21 06:28:36;;;;;;;24.10;17.67;;;;;;;9.48;100.00;100519.72;5094993;28;20101;-50
2022/10/21 06:31:05;;;;;;;38.67;28.92;;;;;;;9.48;100.00;100517.09;5094321;28;20505;-52
2022/10/21 06:33:35;;;;;;;37.13;26.35;;;;;;;9.48;100.00;100515.31;5091678;28;20130;-50
2022/10/21 06:36:04;;;;;;;27.95;20.08;;;;;;;9.50;100.00;100517.81;5092301;28;20564;-49
2022/10/21 06:38:32;;;;;;;26.38;17.75;;;;;;;9.53;100.00;100511.53;5094391;28;21161;-51
2022/10/21 06:41:01;;;;;;;21.15;14.55;;;;;;;9.51;100.00;100509.03;5093175;28;20048;-48
2022/10/21 06:43:29;;;;;;;20.58;14.02;;;;;;;9.54;100.00;100516.69;5094743;28;20123;-48
2022/10/21 06:46:01;;;;;;;18.65;13.38;;;;;;;9.58;100.00;100515.53;5094418;28;20044;-49
2022/10/21 06:48:29;;;;;;;20.50;12.52;;;;;;;9.62;100.00;100518.81;5094740;28;20495;-52
2022/10/21 06:51:01;;;;;;;20.58;13.50;;;;;;;9.64;100.00;100520.41;5094516;28;20097;-51
2022/10/21 06:53:29;;;;;;;20.20;13.48;;;;;;;9.70;100.00;100532.28;5093179;28;20047;-48
2022/10/21 06:56:00;;;;;;;17.73;11.43;;;;;;;9.74;100.00;100533.75;5094564;28;20391;-49
2022/10/21 06:58:29;;;;;;;19.35;13.05;;;;;;;9.80;100.00;100540.38;5094404;28;20074;-50
2022/10/21 07:00:58;;;;;;;19.45;11.95;;;;;;;9.84;100.00;100544.47;5094366;28;20107;-52
2022/10/21 07:03:26;;;;;;;18.67;12.90;;;;;;;9.87;100.00;100554.81;5094429;28;20667;-50
2022/10/21 07:06:01;;;;;;;20.65;12.23;;;;;;;9.91;100.00;100550.16;5094404;28;20135;-51
2022/10/21 07:08:31;;;;;;;20.38;12.75;;;;;;;9.96;100.00;100548.06;5094289;28;20047;-50
2022/10/21 07:11:19;;;;;;;20.90;12.77;;;;;;;10.04;100.00;100548.41;5094190;28;20531;-49
2022/10/21 07:13:48;;;;;;;25.45;14.50;;;;;;;10.10;100.00;100547.13;5094131;28;20036;-57
2022/10/21 07:16:19;;;;;;;19.52;14.32;;;;;;;10.14;100.00;100549.47;5091468;28;20056;-55
2022/10/21 07:18:47;;;;;;;22.50;14.30;;;;;;;10.20;100.00;100547.34;5090990;28;20728;-56
2022/10/21 07:21:19;;;;;;;23.88;14.50;;;;;;;10.25;100.00;100561.88;5093864;28;20044;-55
2022/10/21 07:23:50;;;;;;;23.90;14.82;;;;;;;10.32;100.00;100570.16;5093993;28;20071;-57
2022/10/21 07:26:19;;;;;;;21.00;13.70;;;;;;;10.35;100.00;100567.38;5090600;28;20047;-55
2022/10/21 07:28:48;;;;;;;22.90;14.38;;;;;;;10.41;100.00;100574.00;5090862;28;20171;-50
2022/10/21 07:31:17;;;;;;;22.15;15.38;;;;;;;10.44;100.00;100573.78;5093157;28;20052;-51
2022/10/21 07:33:46;;;;;;;21.48;14.43;;;;;;;10.50;100.00;100568.13;5093128;28;20047;-56
2022/10/21 07:36:18;;;;;;;24.05;14.15;;;;;;;10.58;100.00;100580.72;5090370;28;20090;-55
2022/10/21 07:38:48;;;;;;;26.08;15.50;;;;;;;10.65;100.00;100579.34;5092202;28;20103;-46
2022/10/21 07:41:17;;;;;;;22.38;14.93;;;;;;;10.71;100.00;100581.53;5093428;28;20052;-47
2022/10/21 07:43:46;;;;;;;25.08;15.57;;;;;;;10.79;100.00;100581.00;5093511;28;20069;-48
2022/10/21 07:46:14;;;;;;;26.15;17.10;;;;;;;10.88;100.00;100590.03;5090544;28;20052;-50
2022/10/21 07:48:42;;;;;;;24.13;16.23;;;;;;;10.96;100.00;100585.06;5089359;28;20048;-49
2022/10/21 07:51:12;;;;;;;24.42;15.75;;;;;;;11.03;100.00;100581.09;5089784;28;20521;-55
2022/10/21 07:53:42;;;;;;;24.75;16.30;;;;;;;11.10;100.00;100582.31;5092338;28;20040;-51
2022/10/21 07:56:13;;;;;;;27.77;17.77;;;;;;;11.19;100.00;100580.81;5093322;28;20097;-55
2022/10/21 07:58:41;;;;;;;26.80;16.85;;;;;;;11.25;100.00;100579.53;5093450;28;20040;-55
2022/10/21 08:01:10;;;;;;;25.15;16.35;;;;;;;11.30;100.00;100577.41;5091811;28;20095;-55
2022/10/21 08:03:39;;;;;;;26.33;17.48;;;;;;;11.38;100.00;100576.84;5088836;28;20055;-55
2022/10/21 08:06:08;;;;;;;24.88;16.42;;;;;;;11.47;100.00;100576.19;5089239;28;20054;-55
2022/10/21 08:08:37;;;;;;;25.70;17.73;;;;;;;11.57;100.00;100578.97;5091426;28;20048;-55
2022/10/21 08:11:08;;;;;;;25.90;18.05;;;;;;;11.66;100.00;100570.41;5092532;28;20383;-55
2022/10/21 08:13:39;;;;;;;27.88;17.60;;;;;;;11.76;100.00;100567.91;5089824;28;20514;-55
2022/10/21 08:16:07;;;;;;;27.92;17.55;;;;;;;11.86;100.00;100583.88;5091428;28;20102;-56
2022/10/21 08:18:38;;;;;;;31.15;18.30;;;;;;;11.95;100.00;100570.88;5090455;28;20558;-55
2022/10/21 08:21:06;;;;;;;26.98;18.15;;;;;;;12.02;100.00;100565.16;5089602;28;20089;-55
2022/10/21 08:23:35;;;;;;;30.23;17.25;;;;;;;12.12;100.00;100568.75;5093221;28;20109;-55
2022/10/21 08:26:04;;;;;;;25.15;16.98;;;;;;;12.23;100.00;100571.44;5090646;28;20085;-56
2022/10/21 08:28:33;;;;;;;24.40;17.15;;;;;;;12.31;100.00;100562.91;5090045;28;20047;-56
2022/10/21 08:31:05;;;;;;;24.95;17.05;;;;;;;12.40;100.00;100572.75;5091741;28;20136;-55
2022/10/21 08:33:34;;;;;;;26.77;17.40;;;;;;;12.49;100.00;100572.06;5092794;28;20051;-56
2022/10/21 08:36:05;;;;;;;27.35;16.65;;;;;;;12.59;100.00;100560.81;5092836;28;20048;-57
2022/10/21 08:38:34;;;;;;;26.77;16.27;;;;;;;12.71;100.00;100558.97;5090919;28;20055;-56
2022/10/21 08:41:02;;;;;;;26.20;16.42;;;;;;;12.79;100.00;100568.00;5092148;28;20044;-56
2022/10/21 08:43:34;;;;;;;24.85;15.77;;;;;;;12.89;100.00;100567.25;5092097;28;20074;-52
2022/10/21 08:46:07;;;;;;;23.40;14.88;;;;;;;12.98;100.00;100566.53;5092114;28;20344;-51
2022/10/21 08:48:39;;;;;;;22.38;15.13;;;;;;;13.06;100.00;100565.91;5107646;28;20040;-54
2022/10/21 08:51:22;;;;;;;22.25;15.65;;;;;;;13.15;100.00;100563.34;5092022;28;20040;-51
2022/10/21 08:53:53;;;;;;;22.80;14.75;;;;;;;13.23;100.00;100570.69;5092594;28;20066;-52
2022/10/21 08:56:21;;;;;;;23.27;14.07;;;;;;;13.34;100.00;100567.16;5092525;28;20441;-51
2022/10/21 08:58:51;;;;;;;22.83;13.48;;;;;;;13.35;100.00;100567.06;5089425;28;20161;-49
2022/10/21 09:01:26;;;;;;;20.77;13.73;;;;;;;13.46;100.00;100560.09;5090031;28;20151;-50
2022/10/21 09:04:02;;;;;;;23.45;13.77;;;;;;;13.53;100.00;100561.25;5092374;28;20097;-52
2022/10/21 09:06:37;;;;;;;20.58;13.70;;;;;;;13.65;100.00;100562.06;5092431;28;20368;-50
2022/10/21 09:09:13;;;;;;;18.80;13.20;;;;;;;13.67;100.00;100570.69;5091026;28;20076;-52
2022/10/21 09:11:59;;;;;;;21.55;13.80;;;;;;;13.72;100.00;100571.16;5089749;28;20048;-51
2022/10/21 09:14:53;;;;;;;18.48;13.48;;;;;;;13.77;100.00;100568.97;5090146;28;20076;-52
2022/10/21 09:17:47;;;;;;;17.25;12.90;;;;;;;13.81;100.00;100573.03;5092146;28;20492;-53
2022/10/21 09:20:29;;;;;;;20.42;13.40;;;;;;;13.88;100.00;100575.16;5087414;28;20106;-49
2022/10/21 09:23:11;;;;;;;22.33;13.25;;;;;;;13.96;100.00;100584.13;5092198;28;20105;-52
2022/10/21 09:25:48;;;;;;;17.02;13.10;;;;;;;13.98;100.00;100576.91;5092161;28;20044;-49
2022/10/21 09:28:16;;;;;;;18.40;12.57;;;;;;;14.02;100.00;100574.84;5092262;28;20048;-49
2022/10/21 09:30:47;;;;;;;18.35;12.15;;;;;;;14.07;100.00;100580.59;5092292;28;20040;-51
2022/10/21 09:33:21;;;;;;;16.40;11.25;;;;;;;14.12;100.00;100588.13;5092025;28;20055;-50
2022/10/21 09:35:53;;;;;;;17.30;10.40;;;;;;;14.14;100.00;100596.78;5089818;28;20517;-51
2022/10/21 09:38:25;;;;;;;17.20;10.05;;;;;;;14.13;100.00;100608.31;5087656;28;20105;-51
2022/10/21 09:41:02;;;;;;;14.35;9.93;;;;;;;14.15;100.00;100620.44;5092019;28;20101;-50
2022/10/21 09:43:30;;;;;;;13.57;8.52;;;;;;;14.13;100.00;100626.81;5090338;28;20075;-52
2022/10/21 09:46:00;;;;;;;14.20;8.30;;;;;;;14.14;100.00;100618.75;5089031;28;20131;-51
2022/10/21 09:48:33;;;;;;;15.40;7.57;;;;;;;14.18;100.00;100609.59;5091171;28;20048;-48
2022/10/21 09:51:25;;;;;;;13.15;7.68;;;;;;;14.26;100.00;100603.69;5096212;28;20398;-53
2022/10/21 09:53:57;;;;;;;13.98;8.23;;;;;;;14.19;100.00;100611.28;5095598;28;20055;-53
2022/10/21 09:56:28;;;;;;;17.90;8.40;;;;;;;14.23;100.00;100606.56;5080044;28;20060;-49
2022/10/21 09:59:05;;;;;;;14.98;7.93;;;;;;;14.27;100.00;100601.84;5089317;28;20426;-53
2022/10/21 10:01:37;;;;;;;14.52;7.93;;;;;;;14.30;100.00;100606.88;5091168;28;20059;-58
2022/10/21 10:04:12;;;;;;;14.35;8.40;;;;;;;14.28;100.00;100612.31;5089958;28;20114;-57
2022/10/21 10:06:43;;;;;;;14.70;7.93;;;;;;;14.33;100.00;100612.75;5090924;28;20052;-58
2022/10/21 10:09:17;;;;;;;14.48;8.38;;;;;;;14.33;100.00;100606.63;5076234;28;20570;-57
2022/10/21 10:11:52;;;;;;;16.17;8.05;;;;;;;14.34;100.00;100606.50;5081540;28;20491;-57
2022/10/21 10:14:29;;;;;;;15.70;8.15;;;;;;;14.37;100.00;100610.72;5090715;28;20454;-57
2022/10/21 10:17:20;;;;;;;13.73;7.85;;;;;;;14.44;100.00;100613.63;5070390;28;20040;-55
2022/10/21 10:20:22;;;;;;;16.73;8.07;;;;;;;14.48;100.00;100613.25;5064384;28;20040;-53
2022/10/21 10:23:09;;;;;;;16.98;9.60;;;;;;;14.51;100.00;100610.34;4988592;28;20054;-54
2022/10/21 10:25:39;;;;;;;14.57;8.60;;;;;;;14.58;100.00;100613.31;4990309;28;20054;-54
2022/10/21 10:28:19;;;;;;;14.70;8.65;;;;;;;14.56;100.00;100615.25;5038217;28;20068;-56
2022/10/21 10:30:52;;;;;;;17.25;9.07;;;;;;;14.61;100.00;100618.31;5070876;28;20041;-55
2022/10/21 10:33:24;;;;;;;17.75;9.30;;;;;;;14.65;100.00;100613.66;5074288;28;20557;-56
2022/10/21 10:35:55;;;;;;;14.40;8.75;;;;;;;14.67;100.00;100622.28;5070009;28;20048;-55
2022/10/21 10:38:29;;;;;;;14.88;8.82;;;;;;;14.68;100.00;100619.53;5068929;28;20385;-56
2022/10/21 10:41:05;;;;;;;13.88;8.57;;;;;;;14.73;100.00;100615.66;5069951;28;20531;-56
2022/10/21 10:43:44;;;;;;;13.02;8.38;;;;;;;14.77;100.00;100619.72;5070134;28;20049;-56
2022/10/21 10:46:24;;;;;;;16.55;8.63;;;;;;;14.81;100.00;100626.41;5069751;28;20040;-55
2022/10/21 10:48:55;;;;;;;14.65;8.80;;;;;;;14.83;100.00;100630.59;5073269;28;20045;-55
2022/10/21 10:51:27;;;;;;;17.35;9.27;;;;;;;14.88;100.00;100631.03;5074366;28;20098;-56
2022/10/21 10:54:16;;;;;;;15.68;9.00;;;;;;;14.96;100.00;100624.25;5074216;28;20403;-56
2022/10/21 10:56:50;;;;;;;14.95;9.00;;;;;;;14.97;100.00;100631.19;5074191;28;20408;-57
2022/10/21 10:59:30;;;;;;;16.05;8.45;;;;;;;15.10;100.00;100634.44;5074425;28;20048;-56
2022/10/21 11:02:14;;;;;;;13.95;7.80;;;;;;;15.16;100.00;100636.56;5073997;28;20114;-56
2022/10/21 11:04:55;;;;;;;12.23;7.38;;;;;;;15.10;100.00;100636.28;5074380;28;20079;-56
2022/10/21 11:07:28;;;;;;;12.75;6.30;;;;;;;15.12;100.00;100634.31;5074042;28;20425;-56
2022/10/21 11:10:03;;;;;;;13.43;6.78;;;;;;;15.11;100.00;100632.66;5073866;28;20090;-57
2022/10/21 11:12:32;;;;;;;11.30;6.60;;;;;;;15.08;100.00;100638.19;5073801;28;20068;-56
2022/10/21 11:15:00;;;;;;;13.20;7.30;;;;;;;15.11;100.00;100633.47;5073937;28;20040;-57
2022/10/21 11:17:37;;;;;;;14.38;6.88;;;;;;;15.14;100.00;100635.03;5072098;28;20053;-57
2022/10/21 11:20:17;;;;;;;13.77;6.75;;;;;;;15.17;100.00;100632.97;5069188;28;20048;-57
2022/10/21 11:22:54;;;;;;;14.85;6.50;;;;;;;15.23;100.00;100636.03;5069589;28;20525;-57
2022/10/21 11:25:30;;;;;;;14.75;6.72;;;;;;;15.27;100.00;100634.78;5069684;28;20040;-57